createdAt,value
2023-12-30T00:01:03.023Z,0.057
2023-12-30T00:03:03.207Z,0.059
2023-12-30T00:05:09.230Z,0.056
2023-12-30T00:07:17.919Z,0.057
2023-12-30T00:09:03.004Z,0.059
2023-12-30T00:11:09.014Z,0.060
2023-12-30T00:13:03.437Z,0.058
2023-12-30T00:15:03.297Z,0.058
2023-12-30T00:17:02.947Z,0.059
2023-12-30T00:19:03.046Z,0.061
2023-12-30T00:21:03.451Z,0.059
2023-12-30T00:23:03.227Z,0.060
2023-12-30T00:25:03.285Z,0.059
2023-12-30T00:27:02.921Z,0.058
2023-12-30T00:29:03.110Z,0.059
2023-12-30T00:31:05.555Z,0.060
2023-12-30T00:33:03.564Z,0.061
2023-12-30T00:35:13.737Z,0.060
2023-12-30T00:37:03.428Z,0.059
2023-12-30T00:39:05.658Z,0.059
2023-12-30T00:41:09.310Z,0.061
2023-12-30T00:43:11.972Z,0.061
2023-12-30T00:45:11.984Z,0.061
2023-12-30T00:47:15.071Z,0.061
2023-12-30T00:49:12.260Z,0.059
2023-12-30T00:51:04.131Z,0.059
2023-12-30T00:53:03.173Z,0.060
2023-12-30T00:55:03.544Z,0.060
2023-12-30T00:57:03.005Z,0.059
2023-12-30T00:59:02.931Z,0.061
2023-12-30T01:01:03.139Z,0.062
2023-12-30T01:03:03.342Z,0.061
2023-12-30T01:05:05.254Z,0.063
2023-12-30T01:08:02.980Z,0.061
2023-12-30T01:10:03.091Z,0.062
2023-12-30T01:12:03.160Z,0.062
2023-12-30T01:14:02.948Z,0.062
2023-12-30T01:16:03.047Z,0.062
2023-12-30T01:18:03.004Z,0.060
2023-12-30T01:20:03.204Z,0.060
2023-12-30T01:22:03.046Z,0.061
2023-12-30T01:24:02.985Z,0.060
2023-12-30T01:26:03.046Z,0.059
2023-12-30T01:28:02.950Z,0.060
2023-12-30T01:30:03.391Z,0.058
2023-12-30T01:32:03.257Z,0.060
2023-12-30T01:34:03.150Z,0.058
2023-12-30T01:36:03.019Z,0.057
2023-12-30T01:38:05.036Z,0.056
2023-12-30T01:40:03.018Z,0.057
2023-12-30T01:42:03.018Z,0.058
2023-12-30T01:44:03.023Z,0.057
2023-12-30T01:46:03.082Z,0.058
2023-12-30T01:48:03.205Z,0.060
2023-12-30T01:50:02.994Z,0.061
2023-12-30T01:52:03.227Z,0.062
2023-12-30T01:54:03.115Z,0.062
2023-12-30T01:56:03.011Z,0.060
2023-12-30T01:58:03.142Z,0.059
2023-12-30T02:00:02.993Z,0.058
2023-12-30T02:02:03.034Z,0.057
2023-12-30T02:04:03.055Z,0.056
2023-12-30T02:06:02.989Z,0.056
2023-12-30T02:08:03.209Z,0.053
2023-12-30T02:10:03.101Z,0.053
2023-12-30T02:12:03.249Z,0.053
2023-12-30T02:14:07.915Z,0.052
2023-12-30T02:16:03.280Z,0.050
2023-12-30T02:18:03.654Z,0.051
2023-12-30T02:20:03.167Z,0.053
2023-12-30T02:22:03.106Z,0.050
2023-12-30T02:24:03.025Z,0.050
2023-12-30T02:26:03.016Z,0.050
2023-12-30T02:28:03.087Z,0.052
2023-12-30T02:30:02.984Z,0.051
2023-12-30T02:32:03.102Z,0.051
2023-12-30T02:34:03.139Z,0.052
2023-12-30T02:36:03.589Z,0.053
2023-12-30T02:38:03.076Z,0.055
2023-12-30T02:40:03.173Z,0.054
2023-12-30T02:42:03.081Z,0.055
2023-12-30T02:44:08.277Z,0.054
2023-12-30T02:46:03.078Z,0.053
2023-12-30T02:48:03.076Z,0.052
2023-12-30T02:50:03.150Z,0.052
2023-12-30T02:52:03.045Z,0.052
2023-12-30T02:54:03.340Z,0.050
2023-12-30T02:56:03.005Z,0.052
2023-12-30T02:58:03.130Z,0.051
2023-12-30T03:00:03.048Z,0.051
2023-12-30T03:02:03.186Z,0.050
2023-12-30T03:04:03.224Z,0.054
2023-12-30T03:06:03.090Z,0.053
2023-12-30T03:08:03.998Z,0.054
2023-12-30T03:10:03.230Z,0.054
2023-12-30T03:12:03.018Z,0.053
2023-12-30T03:14:03.045Z,0.057
2023-12-30T03:16:03.158Z,0.058
2023-12-30T03:18:03.133Z,0.058
2023-12-30T03:20:03.374Z,0.058
2023-12-30T03:22:03.035Z,0.058
2023-12-30T03:24:03.078Z,0.058
2023-12-30T03:26:03.805Z,0.056
2023-12-30T03:28:03.171Z,0.055
2023-12-30T03:30:03.067Z,0.058
2023-12-30T03:32:03.015Z,0.056
2023-12-30T03:34:03.068Z,0.058
2023-12-30T03:36:03.733Z,0.057
2023-12-30T03:38:03.190Z,0.056
2023-12-30T03:40:03.203Z,0.056
2023-12-30T03:42:03.187Z,0.055
2023-12-30T03:44:03.108Z,0.058
2023-12-30T03:46:08.091Z,0.058
2023-12-30T03:48:03.282Z,0.058
2023-12-30T03:50:03.250Z,0.059
2023-12-30T03:52:07.997Z,0.055
2023-12-30T03:54:03.216Z,0.056
2023-12-30T03:56:03.630Z,0.056
2023-12-30T03:58:03.224Z,0.056
2023-12-30T04:00:03.212Z,0.056
2023-12-30T04:02:03.181Z,0.055
2023-12-30T04:04:03.153Z,0.056
2023-12-30T04:06:04.128Z,0.056
2023-12-30T04:08:03.071Z,0.056
2023-12-30T04:10:05.377Z,0.056
2023-12-30T04:12:03.153Z,0.056
2023-12-30T04:14:03.159Z,0.055
2023-12-30T04:16:03.814Z,0.055
2023-12-30T04:18:08.056Z,0.056
2023-12-30T04:22:05.660Z,0.055
2023-12-30T04:24:04.915Z,0.055
2023-12-30T04:26:03.513Z,0.058
2023-12-30T04:28:03.087Z,0.059
2023-12-30T04:30:03.277Z,0.059
2023-12-30T04:34:06.758Z,0.059
2023-12-30T04:38:17.365Z,0.059
2023-12-30T04:40:22.004Z,0.060
2023-12-30T04:42:17.001Z,0.059
2023-12-30T04:44:17.265Z,0.056
2023-12-30T04:46:17.092Z,0.056
2023-12-30T04:48:17.221Z,0.057
2023-12-30T04:50:17.291Z,0.058
2023-12-30T04:52:17.094Z,0.059
2023-12-30T04:54:17.184Z,0.059
2023-12-30T04:56:17.022Z,0.060
2023-12-30T04:58:17.120Z,0.059
2023-12-30T05:00:19.260Z,0.060
2023-12-30T05:02:17.032Z,0.061
2023-12-30T05:04:17.596Z,0.060
2023-12-30T05:06:17.142Z,0.061
2023-12-30T05:08:17.070Z,0.062
2023-12-30T05:10:17.154Z,0.063
2023-12-30T05:12:17.107Z,0.063
2023-12-30T05:14:17.081Z,0.062
2023-12-30T05:16:17.689Z,0.062
2023-12-30T05:18:17.969Z,0.063
2023-12-30T05:20:19.464Z,0.062
2023-12-30T05:22:17.605Z,0.063
2023-12-30T05:24:17.096Z,0.063
2023-12-30T05:26:22.947Z,0.064
2023-12-30T05:28:17.133Z,0.063
2023-12-30T05:30:17.107Z,0.063
2023-12-30T05:32:17.055Z,0.062
2023-12-30T05:34:17.280Z,0.062
2023-12-30T05:36:17.126Z,0.064
2023-12-30T05:38:17.219Z,0.063
2023-12-30T05:40:20.095Z,0.063
2023-12-30T05:42:17.140Z,0.063
2023-12-30T05:44:17.295Z,0.064
2023-12-30T05:46:17.225Z,0.064
2023-12-30T05:48:17.208Z,0.063
2023-12-30T05:50:17.072Z,0.062
2023-12-30T05:52:17.989Z,0.063
2023-12-30T05:54:20.202Z,0.066
2023-12-30T05:57:17.034Z,0.065
2023-12-30T05:58:19.297Z,0.065
2023-12-30T06:01:17.159Z,0.064
2023-12-30T06:03:17.318Z,0.062
2023-12-30T06:05:21.608Z,0.060
2023-12-30T06:07:20.671Z,0.060
2023-12-30T06:09:17.051Z,0.058
2023-12-30T06:11:20.354Z,0.058
2023-12-30T06:13:17.356Z,0.058
2023-12-30T06:15:17.080Z,0.059
2023-12-30T06:17:19.767Z,0.058
2023-12-30T06:19:19.868Z,0.058
2023-12-30T06:21:23.345Z,0.059
2023-12-30T06:23:17.172Z,0.058
2023-12-30T06:25:20.098Z,0.055
2023-12-30T06:27:17.106Z,0.054
2023-12-30T06:28:29.291Z,0.052
2023-12-30T06:30:31.506Z,0.052
2023-12-30T06:33:19.837Z,0.051
2023-12-30T06:35:17.140Z,0.053
2023-12-30T06:37:23.703Z,0.053
2023-12-30T06:39:20.398Z,0.053
2023-12-30T06:41:19.968Z,0.052
2023-12-30T06:43:20.202Z,0.052
2023-12-30T06:45:19.891Z,0.052
2023-12-30T06:47:19.802Z,0.051
2023-12-30T06:49:24.747Z,0.050
2023-12-30T06:51:20.211Z,0.048
2023-12-30T06:53:20.116Z,0.047
2023-12-30T06:55:26.241Z,0.048
2023-12-30T06:57:32.532Z,0.046
2023-12-30T06:59:17.120Z,0.048
2023-12-30T07:01:20.352Z,0.050
2023-12-30T07:03:17.137Z,0.051
2023-12-30T07:05:19.777Z,0.054
2023-12-30T07:07:22.952Z,0.054
2023-12-30T07:09:20.172Z,0.055
2023-12-30T07:11:26.346Z,0.055
2023-12-30T07:13:19.821Z,0.054
2023-12-30T07:15:19.841Z,0.054
2023-12-30T07:17:22.952Z,0.052
2023-12-30T07:19:21.322Z,0.054
2023-12-30T07:21:22.098Z,0.054
2023-12-30T07:23:17.851Z,0.056
2023-12-30T07:25:17.325Z,0.058
2023-12-30T07:27:19.921Z,0.058
2023-12-30T07:29:17.127Z,0.057
2023-12-30T07:31:23.661Z,0.056
2023-12-30T07:33:22.873Z,0.055
2023-12-30T07:35:17.139Z,0.053
2023-12-30T07:37:17.346Z,0.054
2023-12-30T07:39:17.390Z,0.055
2023-12-30T07:41:17.236Z,0.056
2023-12-30T07:43:17.268Z,0.057
2023-12-30T07:45:17.138Z,0.055
2023-12-30T07:47:18.074Z,0.057
2023-12-30T07:49:17.573Z,0.059
2023-12-30T07:51:17.226Z,0.059
2023-12-30T07:53:17.163Z,0.059
2023-12-30T07:55:17.237Z,0.057
2023-12-30T07:57:19.805Z,0.057
2023-12-30T07:59:17.234Z,0.057
2023-12-30T08:01:17.301Z,0.055
2023-12-30T08:03:20.763Z,0.055
2023-12-30T08:05:23.469Z,0.054
2023-12-30T08:07:17.303Z,0.054
2023-12-30T08:09:17.442Z,0.054
2023-12-30T08:11:24.716Z,0.053
2023-12-30T08:13:17.204Z,0.053
2023-12-30T08:15:17.233Z,0.054
2023-12-30T08:17:17.258Z,0.056
2023-12-30T08:19:17.175Z,0.055
2023-12-30T08:21:17.598Z,0.054
2023-12-30T08:23:19.415Z,0.054
2023-12-30T08:25:17.179Z,0.054
2023-12-30T08:27:17.172Z,0.056
2023-12-30T08:29:17.244Z,0.057
2023-12-30T08:31:20.095Z,0.058
2023-12-30T08:33:17.314Z,0.061
2023-12-30T08:35:23.233Z,0.062
2023-12-30T08:37:17.338Z,0.060
2023-12-30T08:39:19.014Z,0.060
2023-12-30T08:41:17.186Z,0.058
2023-12-30T08:43:17.169Z,0.059
2023-12-30T08:45:20.208Z,0.059
2023-12-30T08:47:17.320Z,0.057
2023-12-30T08:49:17.392Z,0.056
2023-12-30T08:51:17.176Z,0.057
2023-12-30T08:53:17.211Z,0.057
2023-12-30T08:55:18.292Z,0.058
2023-12-30T08:57:17.211Z,0.060
2023-12-30T08:59:17.306Z,0.059
2023-12-30T09:01:17.252Z,0.061
2023-12-30T09:03:19.131Z,0.061
2023-12-30T09:05:17.314Z,0.061
2023-12-30T09:07:17.362Z,0.061
2023-12-30T09:09:17.228Z,0.062
2023-12-30T09:11:17.310Z,0.061
2023-12-30T09:13:17.654Z,0.059
2023-12-30T09:15:17.174Z,0.060
2023-12-30T09:17:17.378Z,0.058
2023-12-30T09:19:17.265Z,0.058
2023-12-30T09:21:17.344Z,0.060
2023-12-30T09:23:17.808Z,0.058
2023-12-30T09:25:17.241Z,0.057
2023-12-30T09:27:17.914Z,0.058
2023-12-30T09:29:17.519Z,0.057
2023-12-30T09:31:17.669Z,0.057
2023-12-30T09:33:17.305Z,0.056
2023-12-30T09:35:17.302Z,0.055
2023-12-30T09:37:17.258Z,0.055
2023-12-30T09:40:17.237Z,0.055
2023-12-30T09:42:17.335Z,0.057
2023-12-30T09:44:17.247Z,0.058
2023-12-30T09:46:17.265Z,0.061
2023-12-30T09:48:17.312Z,0.063
2023-12-30T09:50:17.257Z,0.063
2023-12-30T09:52:17.295Z,0.061
2023-12-30T09:53:22.102Z,0.063
2023-12-30T09:56:20.048Z,0.063
2023-12-30T09:58:18.464Z,0.063
2023-12-30T10:00:17.371Z,0.061
2023-12-30T10:02:17.314Z,0.061
2023-12-30T10:04:18.660Z,0.060
2023-12-30T10:06:17.369Z,0.060
2023-12-30T10:08:17.288Z,0.060
2023-12-30T10:10:19.125Z,0.059
2023-12-30T10:12:17.215Z,0.060
2023-12-30T10:14:17.751Z,0.059
2023-12-30T10:16:17.903Z,0.061
2023-12-30T10:18:17.322Z,0.061
2023-12-30T10:20:20.380Z,0.059
2023-12-30T10:22:17.275Z,0.060
2023-12-30T10:24:22.155Z,0.060
2023-12-30T10:26:17.348Z,0.060
2023-12-30T10:28:17.328Z,0.058
2023-12-30T10:30:17.375Z,0.058
2023-12-30T10:32:17.772Z,0.056
2023-12-30T10:34:17.435Z,0.056
2023-12-30T10:36:17.284Z,0.058
2023-12-30T10:38:20.237Z,0.182
2023-12-30T10:40:20.274Z,0.181
2023-12-30T10:42:17.452Z,0.181
2023-12-30T10:44:17.311Z,0.182
2023-12-30T10:46:17.407Z,0.179
2023-12-30T10:48:19.686Z,0.178
2023-12-30T10:50:17.568Z,0.180
2023-12-30T10:52:17.479Z,0.179
2023-12-30T10:56:17.385Z,0.177
2023-12-30T10:58:17.365Z,0.176
2023-12-30T11:00:19.947Z,0.180
2023-12-30T11:04:24.621Z,0.177
2023-12-30T11:08:19.853Z,0.176
2023-12-30T11:10:37.650Z,0.179
2023-12-30T11:12:30.131Z,0.177
2023-12-30T11:14:32.335Z,0.178
2023-12-30T11:16:35.282Z,0.177
2023-12-30T11:18:30.328Z,0.177
2023-12-30T11:20:30.194Z,0.175
2023-12-30T11:22:30.222Z,0.177
2023-12-30T11:24:30.264Z,0.177
2023-12-30T11:26:30.126Z,0.177
2023-12-30T11:28:30.201Z,0.179
2023-12-30T11:30:36.992Z,0.180
2023-12-30T11:32:30.168Z,0.182
2023-12-30T11:34:33.292Z,0.184
2023-12-30T11:36:30.366Z,0.183
2023-12-30T11:38:30.178Z,0.063
2023-12-30T11:40:33.088Z,0.063
2023-12-30T11:42:38.019Z,0.062
2023-12-30T11:44:30.168Z,0.062
2023-12-30T11:46:30.244Z,0.063
2023-12-30T11:48:30.205Z,0.065
2023-12-30T11:50:30.204Z,0.064
2023-12-30T11:52:30.221Z,0.068
2023-12-30T11:54:30.190Z,0.070
2023-12-30T11:56:30.168Z,0.070
2023-12-30T11:58:30.189Z,0.070
2023-12-30T12:00:30.133Z,0.071
2023-12-30T12:02:30.271Z,0.073
2023-12-30T12:04:30.405Z,0.075
2023-12-30T12:06:30.145Z,0.079
2023-12-30T12:08:31.563Z,0.081
2023-12-30T12:10:30.338Z,0.080
2023-12-30T12:12:30.129Z,0.084
2023-12-30T12:14:30.268Z,0.086
2023-12-30T12:16:30.247Z,0.086
2023-12-30T12:18:30.201Z,0.089
2023-12-30T12:20:30.828Z,0.092
2023-12-30T12:22:30.212Z,0.091
2023-12-30T12:24:30.214Z,0.093
2023-12-30T12:26:30.399Z,0.095
2023-12-30T12:28:30.155Z,0.096
2023-12-30T12:30:30.199Z,0.094
2023-12-30T12:32:31.331Z,0.093
2023-12-30T12:34:30.262Z,0.092
2023-12-30T12:36:30.134Z,0.091
2023-12-30T12:38:30.167Z,0.090
2023-12-30T12:40:36.138Z,0.092
2023-12-30T12:42:32.910Z,0.093
2023-12-30T12:44:30.228Z,0.095
2023-12-30T12:46:30.225Z,0.095
2023-12-30T12:48:30.236Z,0.097
2023-12-30T12:50:30.158Z,0.099
2023-12-30T12:52:30.178Z,0.103
2023-12-30T12:54:35.028Z,0.104
2023-12-30T12:56:30.339Z,0.104
2023-12-30T12:58:30.242Z,0.104
2023-12-30T13:00:30.226Z,0.103
2023-12-30T13:02:30.273Z,0.102
2023-12-30T13:04:33.819Z,0.101
2023-12-30T13:06:31.207Z,0.100
2023-12-30T13:08:30.903Z,0.100
2023-12-30T13:10:30.201Z,0.099
2023-12-30T13:12:31.569Z,0.096
2023-12-30T13:14:33.254Z,0.096
2023-12-30T13:16:30.240Z,0.095
2023-12-30T13:18:33.047Z,0.094
2023-12-30T13:20:30.198Z,0.095
2023-12-30T13:22:32.912Z,0.097
2023-12-30T13:24:30.290Z,0.097
2023-12-30T13:26:30.245Z,0.101
2023-12-30T13:28:30.349Z,0.105
2023-12-30T13:30:32.938Z,0.108
2023-12-30T13:32:30.379Z,0.115
2023-12-30T13:34:30.346Z,0.118
2023-12-30T13:36:33.819Z,0.121
2023-12-30T13:38:30.239Z,0.136
2023-12-30T13:40:30.195Z,0.150
2023-12-30T13:42:30.190Z,0.150
2023-12-30T13:44:30.194Z,0.157
2023-12-30T13:46:30.185Z,0.165
2023-12-30T13:48:31.902Z,0.165
2023-12-30T13:50:30.249Z,0.195
2023-12-30T13:52:30.275Z,0.231
2023-12-30T13:54:31.070Z,0.243
2023-12-30T13:56:30.313Z,0.244
2023-12-30T13:58:30.324Z,0.248
2023-12-30T14:00:31.283Z,0.253
2023-12-30T14:02:30.170Z,0.256
2023-12-30T14:04:30.367Z,0.257
2023-12-30T14:06:30.225Z,0.255
2023-12-30T14:08:30.166Z,0.256
2023-12-30T14:10:30.190Z,0.258
2023-12-30T14:12:30.256Z,0.260
2023-12-30T14:14:30.171Z,0.256
2023-12-30T14:16:30.287Z,0.259
2023-12-30T14:18:30.240Z,0.261
2023-12-30T14:21:30.247Z,0.263
2023-12-30T14:23:30.368Z,0.264
2023-12-30T14:25:32.857Z,0.264
2023-12-30T14:27:30.268Z,0.260
2023-12-30T14:29:35.134Z,0.259
2023-12-30T14:31:30.489Z,0.255
2023-12-30T14:33:35.966Z,0.249
2023-12-30T14:35:33.229Z,0.249
2023-12-30T14:37:30.687Z,0.238
2023-12-30T14:39:30.293Z,0.225
2023-12-30T14:40:38.106Z,0.217
2023-12-30T14:43:31.201Z,0.215
2023-12-30T14:45:30.908Z,0.208
2023-12-30T14:47:30.450Z,0.205
2023-12-30T14:49:30.288Z,0.200
2023-12-30T14:51:30.323Z,0.133
2023-12-30T14:53:30.267Z,0.117
2023-12-30T14:55:35.240Z,0.114
2023-12-30T14:57:30.321Z,0.111
2023-12-30T14:59:30.298Z,0.109
2023-12-30T15:01:30.535Z,0.105
2023-12-30T15:03:30.425Z,0.104
2023-12-30T15:05:36.162Z,0.104
2023-12-30T15:07:30.392Z,0.104
2023-12-30T15:09:30.399Z,0.105
2023-12-30T15:11:36.265Z,0.105
2023-12-30T15:13:30.500Z,0.108
2023-12-30T15:15:30.498Z,0.108
2023-12-30T15:17:35.435Z,0.111
2023-12-30T15:19:30.377Z,0.108
2023-12-30T15:21:30.365Z,0.103
2023-12-30T15:23:30.401Z,0.099
2023-12-30T15:25:30.423Z,0.100
2023-12-30T15:27:30.364Z,0.099
2023-12-30T15:29:30.285Z,0.098
2023-12-30T15:31:30.510Z,0.101
2023-12-30T15:33:30.442Z,0.100
2023-12-30T15:35:34.457Z,0.101
2023-12-30T15:37:30.319Z,0.103
2023-12-30T15:39:30.287Z,0.103
2023-12-30T15:41:30.294Z,0.103
2023-12-30T15:43:30.518Z,0.101
2023-12-30T15:45:35.238Z,0.100
2023-12-30T15:47:30.534Z,0.100
2023-12-30T15:49:30.429Z,0.098
2023-12-30T15:51:33.313Z,0.098
2023-12-30T15:53:30.378Z,0.098
2023-12-30T15:55:30.281Z,0.098
2023-12-30T15:57:30.351Z,0.099
2023-12-30T15:59:30.778Z,0.099
2023-12-30T16:01:30.389Z,0.098
2023-12-30T16:03:30.415Z,0.098
2023-12-30T16:05:30.401Z,0.099
2023-12-30T16:07:30.541Z,0.100
2023-12-30T16:09:30.449Z,0.100
2023-12-30T16:11:30.263Z,0.098
2023-12-30T16:13:30.966Z,0.095
2023-12-30T16:15:30.431Z,0.093
2023-12-30T16:17:30.278Z,0.090
2023-12-30T16:19:30.394Z,0.090
2023-12-30T16:21:30.357Z,0.092
2023-12-30T16:23:30.266Z,0.092
2023-12-30T16:25:34.833Z,0.088
2023-12-30T16:27:30.275Z,0.089
2023-12-30T16:29:30.964Z,0.089
2023-12-30T16:31:30.380Z,0.086
2023-12-30T16:33:31.598Z,0.085
2023-12-30T16:35:35.230Z,0.085
2023-12-30T16:37:33.058Z,0.082
2023-12-30T16:39:30.390Z,0.079
2023-12-30T16:41:36.293Z,0.077
2023-12-30T16:43:33.287Z,0.079
2023-12-30T16:45:36.144Z,0.076
2023-12-30T16:47:30.364Z,0.078
2023-12-30T16:49:30.502Z,0.080
2023-12-30T16:51:30.397Z,0.081
2023-12-30T16:53:33.361Z,0.082
2023-12-30T16:55:30.400Z,0.086
2023-12-30T16:57:30.385Z,0.084
2023-12-30T17:01:23.044Z,0.085
2023-12-30T17:03:22.927Z,0.085
2023-12-30T17:05:22.936Z,0.084
2023-12-30T17:07:36.757Z,0.081
2023-12-30T17:09:23.064Z,0.082
2023-12-30T17:11:23.022Z,0.082
2023-12-30T17:13:31.637Z,0.083
2023-12-30T17:15:23.047Z,0.086
2023-12-30T17:17:25.810Z,0.087
2023-12-30T17:19:23.161Z,0.087
2023-12-30T17:21:22.908Z,0.085
2023-12-30T17:23:27.302Z,0.087
2023-12-30T17:25:26.646Z,0.089
2023-12-30T17:27:25.531Z,0.087
2023-12-30T17:29:23.232Z,0.085
2023-12-30T17:31:23.078Z,0.086
2023-12-30T17:33:23.232Z,0.086
2023-12-30T17:35:27.081Z,0.087
2023-12-30T17:37:23.791Z,0.087
2023-12-30T17:40:23.081Z,0.089
2023-12-30T17:41:25.550Z,0.091
2023-12-30T17:43:25.932Z,0.089
2023-12-30T17:46:22.967Z,0.091
2023-12-30T17:48:23.235Z,0.089
2023-12-30T17:50:22.942Z,0.091
2023-12-30T17:52:23.006Z,0.090
2023-12-30T17:54:22.901Z,0.089
2023-12-30T17:56:23.149Z,0.084
2023-12-30T17:58:23.025Z,0.086
2023-12-30T18:00:25.832Z,0.085
2023-12-30T18:02:25.674Z,0.085
2023-12-30T18:04:28.526Z,0.082
2023-12-30T18:05:30.760Z,0.083
2023-12-30T18:08:25.818Z,0.085
2023-12-30T18:10:22.961Z,0.087
2023-12-30T18:12:28.655Z,0.084
2023-12-30T18:14:31.955Z,0.081
2023-12-30T18:16:25.989Z,0.081
2023-12-30T18:18:23.092Z,0.081
2023-12-30T18:20:23.003Z,0.083
2023-12-30T18:22:23.696Z,0.083
2023-12-30T18:24:25.895Z,0.080
2023-12-30T18:26:31.112Z,0.080
2023-12-30T18:28:29.041Z,0.084
2023-12-30T18:30:23.527Z,0.083
2023-12-30T18:32:22.949Z,0.081
2023-12-30T18:34:23.172Z,0.083
2023-12-30T18:36:22.926Z,0.082
2023-12-30T18:38:23.090Z,0.082
2023-12-30T18:40:22.991Z,0.081
2023-12-30T18:42:23.342Z,0.082
2023-12-30T18:44:22.945Z,0.083
2023-12-30T18:46:23.022Z,0.082
2023-12-30T18:48:25.763Z,0.082
2023-12-30T18:50:25.735Z,0.080
2023-12-30T18:52:23.133Z,0.082
2023-12-30T18:54:23.002Z,0.083
2023-12-30T18:56:23.225Z,0.083
2023-12-30T18:58:23.001Z,0.081
2023-12-30T19:00:23.437Z,0.082
2023-12-30T19:02:22.990Z,0.082
2023-12-30T19:04:23.078Z,0.083
2023-12-30T19:06:23.230Z,0.081
2023-12-30T19:08:23.472Z,0.079
2023-12-30T19:10:25.717Z,0.078
2023-12-30T19:12:23.068Z,0.079
2023-12-30T19:14:23.161Z,0.082
2023-12-30T19:16:26.830Z,0.083
2023-12-30T19:18:23.115Z,0.082
2023-12-30T19:20:23.087Z,0.082
2023-12-30T19:22:23.126Z,0.083
2023-12-30T19:24:23.019Z,0.085
2023-12-30T19:26:26.749Z,0.087
2023-12-30T19:28:27.938Z,0.083
2023-12-30T19:30:23.075Z,0.084
2023-12-30T19:32:23.008Z,0.086
2023-12-30T19:34:25.338Z,0.087
2023-12-30T19:36:25.669Z,0.087
2023-12-30T19:38:22.974Z,0.088
2023-12-30T19:40:23.413Z,0.086
2023-12-30T19:42:24.553Z,0.086
2023-12-30T19:44:23.105Z,0.086
2023-12-30T19:46:23.060Z,0.085
2023-12-30T19:48:29.196Z,0.085
2023-12-30T19:50:28.180Z,0.084
2023-12-30T19:52:23.085Z,0.083
2023-12-30T19:54:24.228Z,0.083
2023-12-30T19:56:22.996Z,0.082
2023-12-30T19:58:23.125Z,0.081
2023-12-30T20:00:23.095Z,0.083
2023-12-30T20:02:23.083Z,0.086
2023-12-30T20:04:23.158Z,0.086
2023-12-30T20:06:23.021Z,0.085
2023-12-30T20:08:23.346Z,0.086
2023-12-30T20:10:25.697Z,0.086
2023-12-30T20:12:23.249Z,0.086
2023-12-30T20:14:23.695Z,0.086
2023-12-30T20:16:23.055Z,0.088
2023-12-30T20:18:23.286Z,0.084
2023-12-30T20:20:35.113Z,0.081
2023-12-30T20:22:23.189Z,0.080
2023-12-30T20:24:23.122Z,0.077
2023-12-30T20:26:29.202Z,0.078
2023-12-30T20:28:23.045Z,0.079
2023-12-30T20:30:29.181Z,0.077
2023-12-30T20:32:23.320Z,0.076
2023-12-30T20:34:23.760Z,0.075
2023-12-30T20:36:28.095Z,0.073
2023-12-30T20:38:23.060Z,0.071
2023-12-30T20:40:23.187Z,0.070
2023-12-30T20:42:23.313Z,0.070
2023-12-30T20:44:23.090Z,0.069
2023-12-30T20:46:23.130Z,0.070
2023-12-30T20:48:23.239Z,0.069
2023-12-30T20:50:23.064Z,0.068
2023-12-30T20:52:23.133Z,0.068
2023-12-30T20:54:23.107Z,0.068
2023-12-30T20:56:24.268Z,0.068
2023-12-30T20:58:23.130Z,0.067
2023-12-30T21:00:23.167Z,0.065
2023-12-30T21:02:23.095Z,0.062
2023-12-30T21:04:23.148Z,0.062
2023-12-30T21:06:23.092Z,0.061
2023-12-30T21:08:23.316Z,0.060
2023-12-30T21:10:23.248Z,0.058
2023-12-30T21:12:23.122Z,0.057
2023-12-30T21:14:23.110Z,0.054
2023-12-30T21:16:24.181Z,0.054
2023-12-30T21:18:23.851Z,0.054
2023-12-30T21:20:24.392Z,0.057
2023-12-30T21:23:23.173Z,0.058
2023-12-30T21:25:27.098Z,0.058
2023-12-30T21:27:26.270Z,0.058
2023-12-30T21:29:23.169Z,0.059
2023-12-30T21:31:23.140Z,0.057
2023-12-30T21:33:23.364Z,0.058
2023-12-30T21:35:23.106Z,0.059
2023-12-30T21:36:27.714Z,0.061
2023-12-30T21:39:23.193Z,0.064
2023-12-30T21:41:24.993Z,0.061
2023-12-30T21:43:23.170Z,0.061
2023-12-30T21:45:23.242Z,0.058
2023-12-30T21:47:23.240Z,0.058
2023-12-30T21:49:23.310Z,0.059
2023-12-30T21:51:23.222Z,0.059
2023-12-30T21:53:23.156Z,0.058
2023-12-30T21:55:23.069Z,0.058
2023-12-30T21:57:23.191Z,0.058
2023-12-30T21:59:23.227Z,0.058
2023-12-30T22:01:23.288Z,0.059
2023-12-30T22:03:23.236Z,0.061
2023-12-30T22:05:23.341Z,0.061
2023-12-30T22:07:26.769Z,0.062
2023-12-30T22:09:23.059Z,0.065
2023-12-30T22:11:24.672Z,0.064
2023-12-30T22:13:23.336Z,0.066
2023-12-30T22:15:25.137Z,0.068
2023-12-30T22:17:23.305Z,0.070
2023-12-30T22:19:23.744Z,0.069
2023-12-30T22:21:28.081Z,0.065
2023-12-30T22:23:23.219Z,0.065
2023-12-30T22:25:23.287Z,0.066
2023-12-30T22:27:23.247Z,0.067
2023-12-30T22:29:23.473Z,0.067
2023-12-30T22:31:23.134Z,0.070
2023-12-30T22:33:23.516Z,0.071
2023-12-30T22:35:23.116Z,0.071
2023-12-30T22:37:23.083Z,0.071
2023-12-30T22:39:23.195Z,0.068
2023-12-30T22:41:27.539Z,0.070
2023-12-30T22:43:23.130Z,0.072
2023-12-30T22:45:23.174Z,0.077
2023-12-30T22:47:23.142Z,0.077
2023-12-30T22:49:23.513Z,0.079
2023-12-30T22:51:23.065Z,0.078
2023-12-30T22:53:23.196Z,0.080
2023-12-30T22:55:23.198Z,0.082
2023-12-30T22:57:23.429Z,0.084
2023-12-30T22:59:23.072Z,0.084
2023-12-30T23:01:25.344Z,0.085
2023-12-30T23:03:23.155Z,0.085
2023-12-30T23:05:23.153Z,0.086
2023-12-30T23:07:23.165Z,0.087
2023-12-30T23:09:23.639Z,0.086
2023-12-30T23:11:23.157Z,0.088
2023-12-30T23:13:23.276Z,0.087
2023-12-30T23:15:34.882Z,0.088
2023-12-30T23:17:34.963Z,0.088
2023-12-30T23:19:34.871Z,0.089
2023-12-30T23:21:35.105Z,0.088
2023-12-30T23:23:34.879Z,0.086
2023-12-30T23:25:34.890Z,0.088
2023-12-30T23:27:36.129Z,0.088
2023-12-30T23:29:34.948Z,0.087
2023-12-30T23:31:35.808Z,0.086
2023-12-30T23:33:34.888Z,0.084
2023-12-30T23:35:34.928Z,0.083
2023-12-30T23:37:36.478Z,0.087
2023-12-30T23:39:39.846Z,0.089
2023-12-30T23:41:38.676Z,0.088
2023-12-30T23:43:36.060Z,0.087
2023-12-30T23:45:35.624Z,0.085
2023-12-30T23:47:34.995Z,0.086
2023-12-30T23:49:34.974Z,0.086
2023-12-30T23:51:35.003Z,0.086
2023-12-30T23:53:37.246Z,0.083
2023-12-30T23:55:35.063Z,0.083
2023-12-30T23:57:34.953Z,0.085
2023-12-30T23:59:34.974Z,0.084
